createdAt,value
2016-02-08T00:00:19.670Z,61.32
2016-02-08T00:01:19.675Z,61.51
2016-02-08T00:02:19.692Z,61.32
2016-02-08T00:03:19.742Z,61.8
2016-02-08T00:04:19.761Z,61.61
2016-02-08T00:05:19.766Z,61.77
2016-02-08T00:06:19.783Z,61.42
2016-02-08T00:07:19.802Z,61.61
2016-02-08T00:08:19.821Z,61.67
2016-02-08T00:09:19.838Z,61.51
2016-02-08T00:10:19.857Z,61.7
2016-02-08T00:11:19.875Z,61.7
2016-02-08T00:12:19.900Z,61.7
2016-02-08T00:13:19.918Z,61.19
2016-02-08T00:14:19.936Z,61.42
2016-02-08T00:15:19.970Z,61
2016-02-08T00:16:19.973Z,61.32
2016-02-08T00:17:19.992Z,61.04
2016-02-08T00:18:20.010Z,61.32
2016-02-08T00:19:20.030Z,61.61
2016-02-08T00:20:20.049Z,61.67
2016-02-08T00:21:20.082Z,61.67
2016-02-08T00:22:20.085Z,61.38
2016-02-08T00:23:20.104Z,61.38
2016-02-08T00:24:20.121Z,61.29
2016-02-08T00:25:20.156Z,61.38
2016-02-08T00:26:20.158Z,61.38
2016-02-08T00:27:20.194Z,61.38
2016-02-08T00:28:20.213Z,61.67
2016-02-08T00:29:20.230Z,61.48
2016-02-08T00:30:20.249Z,61.96
2016-02-08T00:31:20.267Z,61.96
2016-02-08T00:32:20.286Z,61.77
2016-02-08T00:33:20.304Z,61.77
2016-02-08T00:34:20.322Z,61.77
2016-02-08T00:35:20.345Z,61.77
2016-02-08T00:36:20.363Z,61.77
2016-02-08T00:37:20.381Z,61.67
2016-02-08T00:38:20.539Z,61.67
2016-02-08T00:39:20.418Z,61.67
2016-02-08T00:40:20.436Z,61.96
2016-02-08T00:41:20.456Z,61.86
2016-02-08T00:42:20.474Z,61.86
2016-02-08T00:43:20.488Z,61.48
2016-02-08T00:44:20.521Z,61.86
2016-02-08T00:45:20.540Z,61.38
2016-02-08T00:46:20.558Z,61.86
2016-02-08T00:47:20.576Z,61.86
2016-02-08T00:48:20.595Z,61.67
2016-02-08T00:49:20.612Z,61.86
2016-02-08T00:50:20.631Z,61.96
2016-02-08T00:51:20.665Z,62.05
2016-02-08T00:52:20.660Z,61.86
2016-02-08T00:53:20.679Z,62.05
2016-02-08T00:54:20.712Z,61.67
2016-02-08T00:55:20.715Z,61.67
2016-02-08T00:56:20.749Z,61.96
2016-02-08T00:57:20.768Z,61.96
2016-02-08T00:58:20.787Z,62.62
2016-02-08T00:59:20.806Z,62.81
2016-02-08T01:00:20.824Z,62.43
2016-02-08T01:01:20.842Z,61.77
2016-02-08T01:02:20.848Z,62.62
2016-02-08T01:03:20.883Z,62.24
2016-02-08T01:04:20.886Z,62.62
2016-02-08T01:05:20.919Z,62.53
2016-02-08T01:06:20.953Z,62.53
2016-02-08T01:07:20.956Z,62.43
2016-02-08T01:08:20.990Z,62.53
2016-02-08T01:09:21.009Z,62.62
2016-02-08T01:10:21.012Z,62.62
2016-02-08T01:11:21.033Z,62.34
2016-02-08T01:12:21.067Z,62.53
2016-02-08T01:13:21.070Z,62.72
2016-02-08T01:14:21.088Z,62.53
2016-02-08T01:15:21.107Z,62.62
2016-02-08T01:16:21.126Z,62.62
2016-02-08T01:17:21.144Z,62.53
2016-02-08T01:18:21.162Z,62.53
2016-02-08T01:19:21.181Z,62.72
2016-02-08T01:20:21.199Z,62.53
2016-02-08T01:21:21.218Z,62.34
2016-02-08T01:22:21.251Z,62.53
2016-02-08T01:23:21.255Z,62.62
2016-02-08T01:24:21.288Z,62.43
2016-02-08T01:25:21.307Z,62.53
2016-02-08T01:26:21.325Z,62.24
2016-02-08T01:27:21.344Z,62.24
2016-02-08T01:28:21.362Z,62.81
2016-02-08T01:29:21.365Z,62.43
2016-02-08T01:30:21.399Z,62.72
2016-02-08T01:31:21.418Z,62.53
2016-02-08T01:32:21.435Z,62.53
2016-02-08T01:33:21.454Z,62.24
2016-02-08T01:34:21.472Z,62.43
2016-02-08T01:35:21.490Z,61.96
2016-02-08T01:36:21.509Z,61.74
2016-02-08T01:37:21.544Z,62.4
2016-02-08T01:38:21.546Z,62.24
2016-02-08T01:39:21.565Z,61.93
2016-02-08T01:40:21.598Z,62.88
2016-02-08T01:41:21.597Z,62.4
2016-02-08T01:42:21.617Z,61.93
2016-02-08T01:43:21.634Z,62.12
2016-02-08T01:44:21.653Z,62.12
2016-02-08T01:45:21.688Z,61.64
2016-02-08T01:46:21.706Z,61.83
2016-02-08T01:47:21.725Z,62.3
2016-02-08T01:48:21.743Z,62.4
2016-02-08T01:49:21.761Z,62.4
2016-02-08T01:50:21.781Z,62.21
2016-02-08T01:51:21.800Z,62.4
2016-02-08T01:52:21.817Z,62.21
2016-02-08T01:53:21.852Z,62.49
2016-02-08T01:54:21.854Z,62.49
2016-02-08T01:55:21.872Z,62.4
2016-02-08T01:56:21.890Z,62.59
2016-02-08T01:57:21.909Z,62.49
2016-02-08T01:58:21.928Z,62.69
2016-02-08T01:59:21.946Z,62.12
2016-02-08T02:00:21.965Z,62.59
2016-02-08T02:01:21.983Z,62.4
2016-02-08T02:02:22.016Z,62.49
2016-02-08T02:03:22.023Z,62.49
2016-02-08T02:04:22.043Z,62.59
2016-02-08T02:05:22.060Z,62.49
2016-02-08T02:06:22.079Z,62.49
2016-02-08T02:07:22.097Z,62.49
2016-02-08T02:08:22.115Z,62.4
2016-02-08T02:09:22.139Z,62.49
2016-02-08T02:10:22.142Z,61.93
2016-02-08T02:11:22.176Z,62.69
2016-02-08T02:12:22.194Z,62.69
2016-02-08T02:13:22.197Z,62.78
2016-02-08T02:14:22.215Z,62.21
2016-02-08T02:15:22.249Z,62.78
2016-02-08T02:16:22.267Z,61.83
2016-02-08T02:17:22.286Z,61.74
2016-02-08T02:18:22.304Z,62.21
2016-02-08T02:19:22.322Z,62.21
2016-02-08T02:20:22.341Z,61.74
2016-02-08T02:21:22.375Z,61.93
2016-02-08T02:22:22.378Z,61.35
2016-02-08T02:23:22.396Z,61.74
2016-02-08T02:24:22.430Z,61.55
2016-02-08T02:25:22.434Z,61.55
2016-02-08T02:26:22.452Z,61.83
2016-02-08T02:27:22.486Z,61.83
2016-02-08T02:28:22.488Z,62.02
2016-02-08T02:29:22.506Z,61.83
2016-02-08T02:30:22.525Z,61.74
2016-02-08T02:31:22.544Z,61.64
2016-02-08T02:32:22.562Z,61.64
2016-02-08T02:33:22.581Z,61.55
2016-02-08T02:34:22.615Z,61.55
2016-02-08T02:35:22.633Z,61.74
2016-02-08T02:36:22.636Z,61.64
2016-02-08T02:37:22.654Z,61.55
2016-02-08T02:38:22.676Z,61.26
2016-02-08T02:39:22.693Z,61.26
2016-02-08T02:40:22.729Z,61.16
2016-02-08T02:41:22.735Z,61.74
2016-02-08T02:42:22.752Z,61.64
2016-02-08T02:43:22.771Z,61.64
2016-02-08T02:44:22.789Z,61.55
2016-02-08T02:45:22.807Z,61.74
2016-02-08T02:46:22.843Z,61.45
2016-02-08T02:47:22.846Z,61.35
2016-02-08T02:48:22.849Z,61.16
2016-02-08T02:49:22.883Z,61.26
2016-02-08T02:50:22.886Z,61.35
2016-02-08T02:51:22.919Z,61.35
2016-02-08T02:52:22.954Z,61.45
2016-02-08T02:53:22.973Z,61.74
2016-02-08T02:54:22.978Z,61.93
2016-02-08T02:55:22.995Z,61.55
2016-02-08T02:56:23.014Z,61.35
2016-02-08T02:57:23.032Z,61.45
2016-02-08T02:58:23.051Z,61.35
2016-02-08T02:59:23.085Z,61.26
2016-02-08T03:00:23.088Z,61.35
2016-02-08T03:01:23.106Z,61.64
2016-02-08T03:02:23.140Z,61.55
2016-02-08T03:03:23.143Z,61.26
2016-02-08T03:04:23.161Z,61.74
2016-02-08T03:05:23.180Z,61.26
2016-02-08T03:06:23.198Z,61.26
2016-02-08T03:07:23.263Z,61.35
2016-02-08T03:08:23.235Z,61.26
2016-02-08T03:09:23.253Z,61.26
2016-02-08T03:10:23.287Z,61.35
2016-02-08T03:11:23.290Z,61.16
2016-02-08T03:12:23.310Z,61.55
2016-02-08T03:13:23.328Z,61.74
2016-02-08T03:14:23.330Z,61.71
2016-02-08T03:15:23.349Z,61.71
2016-02-08T03:16:23.383Z,61.42
2016-02-08T03:17:23.417Z,61.9
2016-02-08T03:18:23.436Z,61.52
2016-02-08T03:19:23.454Z,61.32
2016-02-08T03:20:23.488Z,61.61
2016-02-08T03:21:23.464Z,61.52
2016-02-08T03:22:23.498Z,61.61
2016-02-08T03:23:23.517Z,61.32
2016-02-08T03:24:23.535Z,61.23
2016-02-08T03:25:23.554Z,61.35
2016-02-08T03:26:23.570Z,61.71
2016-02-08T03:27:23.573Z,61.42
2016-02-08T03:28:23.608Z,61.71
2016-02-08T03:29:23.612Z,61.42
2016-02-08T03:30:23.630Z,61.71
2016-02-08T03:31:23.680Z,61.71
2016-02-08T03:32:23.666Z,61.8
2016-02-08T03:33:23.685Z,61.52
2016-02-08T03:34:23.734Z,61.8
2016-02-08T03:35:23.721Z,61.52
2016-02-08T03:36:23.740Z,61.71
2016-02-08T03:37:23.790Z,61.61
2016-02-08T03:38:23.777Z,61.32
2016-02-08T03:39:23.795Z,61.52
2016-02-08T03:40:23.829Z,61.8
2016-02-08T03:41:23.879Z,61.9
2016-02-08T03:42:23.884Z,61.8
2016-02-08T03:43:23.885Z,61.42
2016-02-08T03:44:23.888Z,61.61
2016-02-08T03:45:23.907Z,61.61
2016-02-08T03:46:23.940Z,61.32
2016-02-08T03:47:23.943Z,61.9
2016-02-08T03:48:23.979Z,61.71
2016-02-08T03:49:23.825Z,61.71
2016-02-08T03:50:24.004Z,61.9
2016-02-08T03:51:24.023Z,61.99
2016-02-08T03:52:24.056Z,61.61
2016-02-08T03:53:24.075Z,61.9
2016-02-08T03:54:24.078Z,62.37
2016-02-08T03:55:24.096Z,62.56
2016-02-08T03:56:24.115Z,62.75
2016-02-08T03:57:24.134Z,62.08
2016-02-08T03:58:24.153Z,62.46
2016-02-08T03:59:24.186Z,62.46
2016-02-08T04:00:24.189Z,61.9
2016-02-08T04:01:24.207Z,61.52
2016-02-08T04:02:24.225Z,61.71
2016-02-08T04:03:24.244Z,61.9
2016-02-08T04:04:24.262Z,61.61
2016-02-08T04:05:24.296Z,61.71
2016-02-08T04:06:24.299Z,61.61
2016-02-08T04:07:24.316Z,61.52
2016-02-08T04:08:24.335Z,61.71
2016-02-08T04:09:24.354Z,61.9
2016-02-08T04:10:24.373Z,61.42
2016-02-08T04:11:24.391Z,61.61
2016-02-08T04:12:24.409Z,62.18
2016-02-08T04:13:24.414Z,61.52
2016-02-08T04:14:24.448Z,61.8
2016-02-08T04:15:24.482Z,61.9
2016-02-08T04:16:24.485Z,61.8
2016-02-08T04:17:24.489Z,61.8
2016-02-08T04:18:24.538Z,61.32
2016-02-08T04:19:24.525Z,61.71
2016-02-08T04:20:24.544Z,61.99
2016-02-08T04:21:24.561Z,61.9
2016-02-08T04:22:24.595Z,61.8
2016-02-08T04:23:24.614Z,61.42
2016-02-08T04:24:24.617Z,61.61
2016-02-08T04:25:24.637Z,61.32
2016-02-08T04:26:24.671Z,61.32
2016-02-08T04:27:24.674Z,61.52
2016-02-08T04:28:24.693Z,61.8
2016-02-08T04:29:24.726Z,61.8
2016-02-08T04:30:24.744Z,61.8
2016-02-08T04:31:24.747Z,61.61
2016-02-08T04:32:24.766Z,61.52
2016-02-08T04:33:24.800Z,61.61
2016-02-08T04:34:24.803Z,61.42
2016-02-08T04:35:24.822Z,61.42
2016-02-08T04:36:24.840Z,61.61
2016-02-08T04:37:24.858Z,61.42
2016-02-08T04:38:24.877Z,61.42
2016-02-08T04:39:24.895Z,61.9
2016-02-08T04:40:24.930Z,61.8
2016-02-08T04:41:24.933Z,61.8
2016-02-08T04:42:24.950Z,61.8
2016-02-08T04:43:24.972Z,61.8
2016-02-08T04:44:24.975Z,61.71
2016-02-08T04:45:24.992Z,61.99
2016-02-08T04:46:25.027Z,61.71
2016-02-08T04:47:25.044Z,61.9
2016-02-08T04:48:25.047Z,61.9
2016-02-08T04:49:25.082Z,61.32
2016-02-08T04:50:25.084Z,61.61
2016-02-08T04:51:25.102Z,61.13
2016-02-08T04:52:25.122Z,61.61
2016-02-08T04:53:25.172Z,61.13
2016-02-08T04:54:25.159Z,61.23
2016-02-08T04:55:25.177Z,61.52
2016-02-08T04:56:25.211Z,61.42
2016-02-08T04:57:25.214Z,61.42
2016-02-08T04:58:25.232Z,61.9
2016-02-08T04:59:25.250Z,61.48
2016-02-08T05:00:25.283Z,61.52
2016-02-08T05:01:25.286Z,61.42
2016-02-08T05:02:25.305Z,61.9
2016-02-08T05:03:25.338Z,61.52
2016-02-08T05:04:25.182Z,61.71
2016-02-08T05:05:25.373Z,61.61
2016-02-08T05:06:25.376Z,61.71
2016-02-08T05:07:25.394Z,61.61
2016-02-08T05:08:25.412Z,61.39
2016-02-08T05:09:25.430Z,61.9
2016-02-08T05:10:25.448Z,61.68
2016-02-08T05:11:25.467Z,61.39
2016-02-08T05:12:25.479Z,61.42
2016-02-08T05:13:25.514Z,61.42
2016-02-08T05:14:25.517Z,61.87
2016-02-08T05:15:25.534Z,61.8
2016-02-08T05:16:25.552Z,61.68
2016-02-08T05:17:25.586Z,61.8
2016-02-08T05:18:25.589Z,61.9
2016-02-08T05:19:25.624Z,61.42
2016-02-08T05:20:25.642Z,61.58
2016-02-08T05:21:25.646Z,61.39
2016-02-08T05:22:25.657Z,61.52
2016-02-08T05:23:25.665Z,61.61
2016-02-08T05:24:25.675Z,61.61
2016-02-08T05:25:25.685Z,61.39
2016-02-08T05:26:25.694Z,61.58
2016-02-08T05:27:25.709Z,61.61
2016-02-08T05:28:25.724Z,61.71
2016-02-08T05:29:25.723Z,61.71
2016-02-08T05:30:25.754Z,61.39
2016-02-08T05:31:25.769Z,61.61
2016-02-08T05:32:25.770Z,61.2
2016-02-08T05:33:25.803Z,61.2
2016-02-08T05:34:25.820Z,61.71
2016-02-08T05:35:25.837Z,61.77
2016-02-08T05:36:25.839Z,61.39
2016-02-08T05:37:25.856Z,61.2
2016-02-08T05:38:25.875Z,61.29
2016-02-08T05:39:25.924Z,61.42
2016-02-08T05:40:25.912Z,61.1
2016-02-08T05:41:25.930Z,61.32
2016-02-08T05:42:25.950Z,61.1
2016-02-08T05:43:25.970Z,61.13
2016-02-08T05:44:25.973Z,60.91
2016-02-08T05:45:26.007Z,61.13
2016-02-08T05:46:26.025Z,60.91
2016-02-08T05:47:26.044Z,61.29
2016-02-08T05:48:26.062Z,61.13
2016-02-08T05:49:26.064Z,61.01
2016-02-08T05:50:26.097Z,60.57
2016-02-08T05:51:26.117Z,61.01
2016-02-08T05:52:26.135Z,60.82
2016-02-08T05:53:26.138Z,61.04
2016-02-08T05:54:26.156Z,61.04
2016-02-08T05:55:26.190Z,60.85
2016-02-08T05:56:26.193Z,60.66
2016-02-08T05:57:26.211Z,60.85
2016-02-08T05:58:26.229Z,60.94
2016-02-08T05:59:26.294Z,60.94
2016-02-08T06:00:26.266Z,61.01
2016-02-08T06:01:26.284Z,61.04
2016-02-08T06:02:26.320Z,61.23
2016-02-08T06:03:26.322Z,60.82
2016-02-08T06:04:26.340Z,60.85
2016-02-08T06:05:26.359Z,60.85
2016-02-08T06:06:26.377Z,60.47
2016-02-08T06:07:26.394Z,60.57
2016-02-08T06:08:26.413Z,60.57
2016-02-08T06:09:26.432Z,60.66
2016-02-08T06:10:26.466Z,60.75
2016-02-08T06:11:26.468Z,61.23
2016-02-08T06:12:26.487Z,60.85
2016-02-08T06:13:26.507Z,60.85
2016-02-08T06:14:26.511Z,60.85
2016-02-08T06:15:26.530Z,60.75
2016-02-08T06:16:26.564Z,60.85
2016-02-08T06:17:26.598Z,61.13
2016-02-08T06:18:26.585Z,61.04
2016-02-08T06:19:26.603Z,61.04
2016-02-08T06:20:26.637Z,60.85
2016-02-08T06:21:26.639Z,60.57
2016-02-08T06:22:26.658Z,60.38
2016-02-08T06:23:26.677Z,60.57
2016-02-08T06:24:26.696Z,60.75
2016-02-08T06:25:26.714Z,60.66
2016-02-08T06:26:26.732Z,60.47
2016-02-08T06:27:26.751Z,60.94
2016-02-08T06:28:26.769Z,60.75
2016-02-08T06:29:26.789Z,60.85
2016-02-08T06:30:26.808Z,60.57
2016-02-08T06:31:26.826Z,60.85
2016-02-08T06:32:26.829Z,60.85
2016-02-08T06:33:26.863Z,60.85
2016-02-08T06:34:26.865Z,61.23
2016-02-08T06:35:26.883Z,61.04
2016-02-08T06:36:26.902Z,60.94
2016-02-08T06:37:26.925Z,60.75
2016-02-08T06:38:26.943Z,60.85
2016-02-08T06:39:26.962Z,60.85
2016-02-08T06:40:26.979Z,60.75
2016-02-08T06:41:27.014Z,60.57
2016-02-08T06:42:27.017Z,60.66
2016-02-08T06:43:27.035Z,60.75
2016-02-08T06:44:27.055Z,60.66
2016-02-08T06:45:27.059Z,60.57
2016-02-08T06:46:27.077Z,60.57
2016-02-08T06:47:27.095Z,60.47
2016-02-08T06:48:27.129Z,61.04
2016-02-08T06:49:27.131Z,60.75
2016-02-08T06:50:27.152Z,60.57
2016-02-08T06:51:27.186Z,60.57
2016-02-08T06:52:27.189Z,60.57
2016-02-08T06:53:27.207Z,60.85
2016-02-08T06:54:27.226Z,60.85
2016-02-08T06:55:27.244Z,61.13
2016-02-08T06:56:27.262Z,61.04
2016-02-08T06:57:27.280Z,61.04
2016-02-08T06:58:27.301Z,60.66
2016-02-08T06:59:27.303Z,61.13
2016-02-08T07:00:27.337Z,61.23
2016-02-08T07:01:27.356Z,61.04
2016-02-08T07:02:27.358Z,61.04
2016-02-08T07:03:27.377Z,60.57
2016-02-08T07:04:27.412Z,60.85
2016-02-08T07:05:27.414Z,60.85
2016-02-08T07:06:27.437Z,60.57
2016-02-08T07:07:27.455Z,60.57
2016-02-08T07:08:27.472Z,60.75
2016-02-08T07:09:27.492Z,61.04
2016-02-08T07:10:27.510Z,60.66
2016-02-08T07:11:27.529Z,60.85
2016-02-08T07:12:27.547Z,60.66
2016-02-08T07:13:27.566Z,60.75
2016-02-08T07:14:27.584Z,60.57
2016-02-08T07:15:27.588Z,60.47
2016-02-08T07:16:27.622Z,60.57
2016-02-08T07:17:27.625Z,61.13
2016-02-08T07:18:27.659Z,61.23
2016-02-08T07:19:27.662Z,60.75
2016-02-08T07:20:27.696Z,61.04
2016-02-08T07:21:27.715Z,60.66
2016-02-08T07:22:27.732Z,60.75
2016-02-08T07:23:27.751Z,61.13
2016-02-08T07:24:27.754Z,60.94
2016-02-08T07:25:27.773Z,60.66
2016-02-08T07:26:27.807Z,61.04
2016-02-08T07:27:27.809Z,61.23
2016-02-08T07:28:27.828Z,60.57
2016-02-08T07:29:27.846Z,60.75
2016-02-08T07:30:27.863Z,60.57
2016-02-08T07:31:27.899Z,60.75
2016-02-08T07:32:27.901Z,61.04
2016-02-08T07:33:27.919Z,60.57
2016-02-08T07:34:27.922Z,60.85
2016-02-08T07:35:27.956Z,60.66
2016-02-08T07:36:27.990Z,60.66
2016-02-08T07:37:27.993Z,60.28
2016-02-08T07:38:27.996Z,60.85
2016-02-08T07:39:28.030Z,60.94
2016-02-08T07:40:28.049Z,60.75
2016-02-08T07:41:28.053Z,60.47
2016-02-08T07:42:28.071Z,60.47
2016-02-08T07:43:28.106Z,60.38
2016-02-08T07:44:28.110Z,60.94
2016-02-08T07:45:28.175Z,60.38
2016-02-08T07:46:28.152Z,60.09
2016-02-08T07:47:28.169Z,60.57
2016-02-08T07:48:28.188Z,60.09
2016-02-08T07:49:28.207Z,60.66
2016-02-08T07:50:28.225Z,60.38
2016-02-08T07:51:28.243Z,60.85
2016-02-08T07:52:28.260Z,60.18
2016-02-08T07:53:28.280Z,60.75
2016-02-08T07:54:28.298Z,60.57
2016-02-08T07:55:28.301Z,60.47
2016-02-08T07:56:28.319Z,60.09
2016-02-08T07:57:28.353Z,60.41
2016-02-08T07:58:28.356Z,60.31
2016-02-08T07:59:28.374Z,60.41
2016-02-08T08:00:28.409Z,59.93
2016-02-08T08:01:28.429Z,60.02
2016-02-08T08:02:28.431Z,59.83
2016-02-08T08:03:28.449Z,59.45
2016-02-08T08:04:28.468Z,59.83
2016-02-08T08:05:28.517Z,59.45
2016-02-08T08:06:28.503Z,59.36
2016-02-08T08:07:28.522Z,59.07
2016-02-08T08:08:28.541Z,59.07
2016-02-08T08:09:28.559Z,59.36
2016-02-08T08:10:28.577Z,59.07
2016-02-08T08:11:28.596Z,58.98
2016-02-08T08:12:28.614Z,58.88
2016-02-08T08:13:28.637Z,58.79
2016-02-08T08:14:28.641Z,59.07
2016-02-08T08:15:28.674Z,58.79
2016-02-08T08:16:28.692Z,58.69
2016-02-08T08:17:28.710Z,58.59
2016-02-08T08:18:28.713Z,58.88
2016-02-08T08:19:28.762Z,58.22
2016-02-08T08:20:28.765Z,58.5
2016-02-08T08:21:28.769Z,58.4
2016-02-08T08:22:28.787Z,58.5
2016-02-08T08:23:28.822Z,58.31
2016-02-08T08:24:28.840Z,58.5
2016-02-08T08:25:28.842Z,58.31
2016-02-08T08:26:28.877Z,58.4
2016-02-08T08:27:28.911Z,58.5
2016-02-08T08:28:28.897Z,58.5
2016-02-08T08:29:28.920Z,58.59
2016-02-08T08:30:28.953Z,58.31
2016-02-08T08:31:28.956Z,58.59
2016-02-08T08:32:28.974Z,58.31
2016-02-08T08:33:28.992Z,58.5
2016-02-08T08:34:29.011Z,58.22
2016-02-08T08:35:29.030Z,58.4
2016-02-08T08:36:29.049Z,58.5
2016-02-08T08:37:29.067Z,58.59
2016-02-08T08:38:29.085Z,58.5
2016-02-08T08:39:29.104Z,58.59
2016-02-08T08:40:29.122Z,58.59
2016-02-08T08:41:29.139Z,58.5
2016-02-08T08:42:29.160Z,58.69
2016-02-08T08:43:29.178Z,57.84
2016-02-08T08:44:29.212Z,58.31
2016-02-08T08:45:29.214Z,58.03
2016-02-08T08:46:29.217Z,57.84
2016-02-08T08:47:29.251Z,58.22
2016-02-08T08:48:29.270Z,58.03
2016-02-08T08:49:29.288Z,58.03
2016-02-08T08:50:29.307Z,57.84
2016-02-08T08:51:29.326Z,57.74
2016-02-08T08:52:29.330Z,57.65
2016-02-08T08:53:29.363Z,57.93
2016-02-08T08:54:29.381Z,57.74
2016-02-08T08:55:29.400Z,57.93
2016-02-08T08:56:29.419Z,58.22
2016-02-08T08:57:29.437Z,58.22
2016-02-08T08:58:29.455Z,58.22
2016-02-08T08:59:29.474Z,58.31
2016-02-08T09:00:29.492Z,57.84
2016-02-08T09:01:29.511Z,57.45
2016-02-08T09:02:29.529Z,57.74
2016-02-08T09:03:29.532Z,57.96
2016-02-08T09:04:29.586Z,57.96
2016-02-08T09:05:29.573Z,57.74
2016-02-08T09:06:29.591Z,57.77
2016-02-08T09:07:29.610Z,57.77
2016-02-08T09:08:29.627Z,57.58
2016-02-08T09:09:29.646Z,57.77
2016-02-08T09:10:29.665Z,57.48
2016-02-08T09:11:29.702Z,57.1
2016-02-08T09:12:29.705Z,57.58
2016-02-08T09:13:29.723Z,57.67
2016-02-08T09:14:29.743Z,57.67
2016-02-08T09:15:29.776Z,57.2
2016-02-08T09:16:29.778Z,57.39
2016-02-08T09:17:29.798Z,57.1
2016-02-08T09:18:29.817Z,57.1
2016-02-08T09:19:29.835Z,57.01
2016-02-08T09:20:29.856Z,57.1
2016-02-08T09:21:29.874Z,57.39
2016-02-08T09:22:29.893Z,57.39
2016-02-08T09:23:29.911Z,57.1
2016-02-08T09:24:29.930Z,57.39
2016-02-08T09:25:29.948Z,57.2
2016-02-08T09:26:29.966Z,57.2
2016-02-08T09:27:30.016Z,56.92
2016-02-08T09:28:30.003Z,56.82
2016-02-08T09:29:30.020Z,56.72
2016-02-08T09:30:30.040Z,57.1
2016-02-08T09:31:30.058Z,57.01
2016-02-08T09:32:30.076Z,56.53
2016-02-08T09:33:30.095Z,56.92
2016-02-08T09:34:30.113Z,56.82
2016-02-08T09:35:30.131Z,56.34
2016-02-08T09:36:30.149Z,56.92
2016-02-08T09:37:30.167Z,56.82
2016-02-08T09:38:30.186Z,56.82
2016-02-08T09:39:30.205Z,56.72
2016-02-08T09:40:30.240Z,56.72
2016-02-08T09:41:30.242Z,56.63
2016-02-08T09:42:30.260Z,56.72
2016-02-08T09:43:30.279Z,56.82
2016-02-08T09:44:30.297Z,56.82
2016-02-08T09:45:30.317Z,56.94
2016-02-08T09:46:30.336Z,56.75
2016-02-08T09:47:30.354Z,56.85
2016-02-08T09:48:30.372Z,56.94
2016-02-08T09:49:30.390Z,56.75
2016-02-08T09:50:30.424Z,57.13
2016-02-08T09:51:30.443Z,56.85
2016-02-08T09:52:30.445Z,57.04
2016-02-08T09:53:30.482Z,56.85
2016-02-08T09:54:30.484Z,57.04
2016-02-08T09:55:30.502Z,57.04
2016-02-08T09:56:30.521Z,56.94
2016-02-08T09:57:30.554Z,56.94
2016-02-08T09:58:30.556Z,56.94
2016-02-08T09:59:30.576Z,56.85
2016-02-08T10:00:30.594Z,56.75
2016-02-08T10:01:30.612Z,56.94
2016-02-08T10:02:30.647Z,56.94
2016-02-08T10:03:30.664Z,56.94
2016-02-08T10:04:30.667Z,57.13
2016-02-08T10:05:30.700Z,56.94
2016-02-08T10:06:30.725Z,56.85
2016-02-08T10:07:30.743Z,56.94
2016-02-08T10:08:30.746Z,56.94
2016-02-08T10:09:30.780Z,56.94
2016-02-08T10:10:30.814Z,56.78
2016-02-08T10:11:30.817Z,56.87
2016-02-08T10:12:30.835Z,56.87
2016-02-08T10:13:30.853Z,56.59
2016-02-08T10:14:30.874Z,56.87
2016-02-08T10:15:30.891Z,57.07
2016-02-08T10:16:30.910Z,57.07
2016-02-08T10:17:30.929Z,56.97
2016-02-08T10:18:30.963Z,56.78
2016-02-08T10:19:30.982Z,56.78
2016-02-08T10:20:30.985Z,56.49
2016-02-08T10:21:31.019Z,56.68
2016-02-08T10:22:31.022Z,57.07
2016-02-08T10:23:31.055Z,56.68
2016-02-08T10:24:31.058Z,56.49
2016-02-08T10:25:31.077Z,56.78
2016-02-08T10:26:31.094Z,56.4
2016-02-08T10:27:31.113Z,56.97
2016-02-08T10:28:31.132Z,56.78
2016-02-08T10:29:31.150Z,56.78
2016-02-08T10:30:31.168Z,56.78
2016-02-08T10:31:31.203Z,56.78
2016-02-08T10:32:31.221Z,56.87
2016-02-08T10:33:31.224Z,56.87
2016-02-08T10:34:31.242Z,56.97
2016-02-08T10:35:31.276Z,56.87
2016-02-08T10:36:31.279Z,56.78
2016-02-08T10:37:31.313Z,56.43
2016-02-08T10:38:31.330Z,56.3
2016-02-08T10:39:31.349Z,56.49
2016-02-08T10:40:31.368Z,57.28
2016-02-08T10:41:31.387Z,56.9
2016-02-08T10:42:31.406Z,56.62
2016-02-08T10:43:31.424Z,57
2016-02-08T10:44:31.443Z,56.43
2016-02-08T10:45:31.461Z,56.52
2016-02-08T10:46:31.479Z,55.76
2016-02-08T10:47:31.513Z,55.85
2016-02-08T10:48:31.517Z,55.76
2016-02-08T10:49:31.550Z,55.76
2016-02-08T10:50:31.583Z,55.19
2016-02-08T10:51:31.586Z,55.57
2016-02-08T10:52:31.605Z,55.38
2016-02-08T10:53:31.622Z,55.28
2016-02-08T10:54:31.641Z,55
2016-02-08T10:55:31.659Z,55
2016-02-08T10:56:31.678Z,55.28
2016-02-08T10:57:31.712Z,55
2016-02-08T10:58:31.715Z,55.19
2016-02-08T10:59:31.733Z,55.28
2016-02-08T11:00:31.766Z,54.9
2016-02-08T11:01:31.785Z,54.9
2016-02-08T11:02:31.804Z,55.38
2016-02-08T11:03:31.823Z,55.38
2016-02-08T11:04:31.841Z,54.8
2016-02-08T11:05:31.858Z,54.33
2016-02-08T11:06:31.878Z,54.33
2016-02-08T11:07:31.896Z,55.09
2016-02-08T11:08:31.917Z,54.93
2016-02-08T11:09:31.936Z,54.9
2016-02-08T11:10:31.970Z,54.9
2016-02-08T11:11:31.976Z,54.9
2016-02-08T11:12:31.994Z,55.5
2016-02-08T11:13:32.044Z,54.74
2016-02-08T11:14:32.047Z,55.41
2016-02-08T11:15:32.065Z,54.9
2016-02-08T11:16:32.084Z,55.31
2016-02-08T11:17:32.102Z,55.41
2016-02-08T11:18:32.121Z,55.41
2016-02-08T11:19:32.139Z,54.83
2016-02-08T11:20:32.158Z,55.02
2016-02-08T11:21:32.176Z,54.55
2016-02-08T11:22:32.195Z,54.17
2016-02-08T11:23:32.229Z,55.12
2016-02-08T11:24:32.232Z,54.55
2016-02-08T11:25:32.267Z,54.74
2016-02-08T11:26:32.285Z,54.83
2016-02-08T11:27:32.303Z,54.74
2016-02-08T11:28:32.322Z,53.88
2016-02-08T11:29:32.340Z,54.17
2016-02-08T11:30:32.362Z,54.64
2016-02-08T11:31:32.381Z,54.17
2016-02-08T11:32:32.399Z,54.07
2016-02-08T11:33:32.433Z,53.5
2016-02-08T11:34:32.451Z,53.97
2016-02-08T11:35:32.469Z,53.62
2016-02-08T11:36:32.487Z,53.21
2016-02-08T11:37:32.510Z,53.88
2016-02-08T11:38:32.531Z,53.91
2016-02-08T11:39:32.550Z,53.31
2016-02-08T11:40:32.569Z,54
2016-02-08T11:41:32.587Z,53.81
2016-02-08T11:42:32.605Z,53.72
2016-02-08T11:43:32.626Z,53.81
2016-02-08T11:44:32.644Z,53.91
2016-02-08T11:45:32.677Z,54
2016-02-08T11:46:32.697Z,52.86
2016-02-08T11:47:32.731Z,52.57
2016-02-08T11:48:32.750Z,53.53
2016-02-08T11:49:32.752Z,53.05
2016-02-08T11:50:32.786Z,53.14
2016-02-08T11:51:32.806Z,53.24
2016-02-08T11:52:32.823Z,52.86
2016-02-08T11:53:32.842Z,52.98
2016-02-08T11:54:32.860Z,52.79
2016-02-08T11:55:32.879Z,52.59
2016-02-08T11:56:32.913Z,52.5
2016-02-08T11:57:32.935Z,52.03
2016-02-08T11:58:32.938Z,51.93
2016-02-08T11:59:32.975Z,51.93
2016-02-08T12:00:32.994Z,51.64
2016-02-08T12:01:32.996Z,51.93
2016-02-08T12:02:33.014Z,52.03
2016-02-08T12:03:33.064Z,51.93
2016-02-08T12:04:33.083Z,51.74
2016-02-08T12:05:33.102Z,51.83
2016-02-08T12:06:33.120Z,51.83
2016-02-08T12:07:33.144Z,51.26
2016-02-08T12:08:33.161Z,50.88
2016-02-08T12:09:33.164Z,51.17
2016-02-08T12:10:33.198Z,50.88
2016-02-08T12:11:33.248Z,51.07
2016-02-08T12:12:33.235Z,50.78
2016-02-08T12:13:33.253Z,50.78
2016-02-08T12:14:33.289Z,50.78
2016-02-08T12:15:33.322Z,50.88
2016-02-08T12:16:33.325Z,50.78
2016-02-08T12:17:33.374Z,51.07
2016-02-08T12:18:33.361Z,50.69
2016-02-08T12:19:33.395Z,50.78
2016-02-08T12:20:33.414Z,50.59
2016-02-08T12:21:33.432Z,50.78
2016-02-08T12:22:33.450Z,50.69
2016-02-08T12:23:33.469Z,50.59
2016-02-08T12:24:33.502Z,49.83
2016-02-08T12:25:33.521Z,50.31
2016-02-08T12:26:33.540Z,50.21
2016-02-08T12:27:33.558Z,50.02
2016-02-08T12:28:33.561Z,49.93
2016-02-08T12:29:33.595Z,50.02
2016-02-08T12:30:33.629Z,50.49
2016-02-08T12:31:33.647Z,50.59
2016-02-08T12:32:33.650Z,49.93
2016-02-08T12:33:33.668Z,49.83
2016-02-08T12:34:33.719Z,49.83
2016-02-08T12:35:33.737Z,49.83
2016-02-08T12:36:33.756Z,49.93
2016-02-08T12:37:33.790Z,50.02
2016-02-08T12:38:33.792Z,50.02
2016-02-08T12:39:33.811Z,50.02
2016-02-08T12:40:33.830Z,50.12
2016-02-08T12:41:33.864Z,49.73
2016-02-08T12:42:33.883Z,49.54
2016-02-08T12:43:33.902Z,49.73
2016-02-08T12:44:33.919Z,49.64
2016-02-08T12:45:33.938Z,50.12
2016-02-08T12:46:33.957Z,49.54
2016-02-08T12:47:33.991Z,50.21
2016-02-08T12:48:33.994Z,49.73
2016-02-08T12:49:34.027Z,49.64
2016-02-08T12:50:34.046Z,49.54
2016-02-08T12:51:34.048Z,49.35
2016-02-08T12:52:34.083Z,49.64
2016-02-08T12:53:34.116Z,49.44
2016-02-08T12:54:34.119Z,49.54
2016-02-08T12:55:34.137Z,49.83
2016-02-08T12:56:34.188Z,49.44